Flight Track Log - Related Links

Times and Time Zones

All times are in EDT time to prevent confusion due to time zone crossing. See the SKW6492 flight status page for this flight to view local times or setup timezone preferences in your user account.

Time Position Orientation Groundspeed Altitude Reporting Facility
EDT Latitude Longitude Course Direction KTS MPH feet Rate Location/Type
Sat 10:12:59 PM 39.8333 -104.7333 348° North 246 283 7,800  Level Denver TRACON
Sat 10:14:00 PM 40.1650 -104.7711 347° North  Level FlightAware Approximate
Sat 10:14:00 PM 39.8667 -104.8333 294° West 291 335 9,900  Level Denver TRACON
Sat 10:15:00 PM 40.2708 -104.8029 347° North  Level FlightAware Approximate
Sat 10:15:00 PM 39.9000 -104.9167 298° West 290 334 11,000  Level Denver TRACON
Sat 10:16:00 PM 40.3763 -104.8365 346° North  Level FlightAware Approximate
Sat 10:16:16 PM 39.9986 -104.9550 343° North 310 357 13,300  Level Denver Center
Sat 10:17:00 PM 40.4815 -104.8716 346° North  Level FlightAware Approximate
Sat 10:17:17 PM 40.0869 -104.9436 North 317 365 15,200  Level Denver Center
Sat 10:18:00 PM 40.5873 -104.9035 348° North  Level FlightAware Approximate
Sat 10:18:18 PM 40.1822 -104.9314 North 342 394 16,800  Level Denver Center
Sat 10:19:20 PM 40.2831 -104.9189 North 340 391 18,200 1,415 Climbing Denver Center
Sat 10:20:21 PM 40.3831 -104.9053 North 360 414 19,700 1,131 Climbing Denver Center
Sat 10:21:22 PM 40.4819 -104.8942 North 359 413 20,500 787 Climbing Denver Center
Sat 10:22:23 PM 40.5883 -104.8733 North 372 428 21,300 787 Climbing Denver Center
Sat 10:23:24 PM 40.6914 -104.8589 North 368 423 22,100 934 Climbing Denver Center
Sat 10:24:25 PM 40.7978 -104.8514 North 379 436 23,200 976 Climbing Denver Center
Sat 10:25:27 PM 40.8950 -104.9042 338° Northwest 375 432 24,100 927 Climbing Denver Center
Sat 10:26:28 PM 40.9953 -104.9511 341° North 379 436 25,100 1,082 Climbing Denver Center
Sat 10:27:29 PM 41.0936 -104.9986 340° North 379 436 26,300 934 Climbing Denver Center
Sat 10:28:30 PM 41.2044 -105.0550 339° North 379 436 27,000 634 Climbing Denver Center
Sat 10:29:32 PM 41.3022 -105.1025 340° North 386 444 27,600 634 Climbing Denver Center
Sat 10:30:33 PM 41.4178 -105.1600 340° North 392 451 28,300 639 Climbing Denver Center
Sat 10:31:34 PM 41.5183 -105.2103 339° North 397 457 28,900 537 Climbing Denver Center
Sat 10:32:36 PM 41.6094 -105.2861 328° Northwest 413 475 29,400 634 Climbing Denver Center
Sat 10:33:37 PM 41.7064 -105.3903 321° Northwest 404 465 30,200 738 Climbing Denver Center
Sat 10:34:38 PM 41.7875 -105.4767 322° Northwest 394 453 30,900 738 Climbing Denver Center
Sat 10:35:39 PM 41.8706 -105.5644 322° Northwest 393 452 31,700 541 Climbing Denver Center
Sat 10:36:40 PM 41.9644 -105.6700 320° Northwest 394 453 32,000 146 Climbing Denver Center
Sat 10:37:42 PM 42.0478 -105.7603 321° Northwest 397 457 32,000  Level Denver Center
Sat 10:38:43 PM 42.1433 -105.8672 320° Northwest 399 459 32,000  Level Denver Center
Sat 10:39:44 PM 42.2275 -105.9600 321° Northwest 404 465 32,000  Level Denver Center
Sat 10:40:46 PM 42.3125 -106.0539 321° Northwest 408 470 32,000  Level Denver Center
Sat 10:41:47 PM 42.4108 -106.1644 320° Northwest 409 471 32,000  Level Denver Center
Sat 10:42:48 PM 42.4967 -106.2592 321° Northwest 414 476 32,000  Level Denver Center
Sat 10:43:49 PM 42.5831 -106.3553 321° Northwest 417 480 32,000  Level Denver Center
Sat 10:44:51 PM 42.6825 -106.4697 320° Northwest 419 482 32,000  Level Denver Center
Sat 10:45:52 PM 42.7683 -106.5639 321° Northwest 414 476 32,000  Level Denver Center
Sat 10:46:53 PM 42.8672 -106.6761 320° Northwest 414 476 32,000  Level Denver Center
Sat 10:47:55 PM 42.9489 -106.7689 320° Northwest 403 464 32,000  Level Denver Center
Sat 10:48:56 PM 43.0306 -106.8622 320° Northwest 402 463 32,000  Level Denver Center
Sat 10:49:57 PM 43.1242 -106.9711 320° Northwest 396 456 32,000  Level Denver Center
Sat 10:50:54 PM 43.1919 -107.0500 320° Northwest 396 456 32,000  Level Salt Lake Center
Sat 10:51:56 PM 43.2922 -107.1661 320° Northwest 395 455 32,000  Level Salt Lake Center
Sat 10:52:57 PM 43.3764 -107.2633 320° Northwest 395 455 32,000  Level Salt Lake Center
Sat 10:53:58 PM 43.4606 -107.3628 319° Northwest 396 456 32,000  Level Salt Lake Center
Sat 10:54:59 PM 43.5453 -107.4631 319° Northwest 400 460 32,000 -49 Level Salt Lake Center
Sat 10:56:01 PM 43.6308 -107.5625 320° Northwest 402 463 31,900 -1,073 Descending Salt Lake Center
Sat 10:57:02 PM 43.7186 -107.6672 319° Northwest 416 479 29,800 -2,115 Descending Salt Lake Center
Sat 10:58:03 PM 43.8097 -107.7767 319° Northwest 431 496 27,600 -2,213 Descending Salt Lake Center
Sat 10:59:04 PM 43.9036 -107.8883 319° Northwest 443 510 25,300 -2,262 Descending Salt Lake Center
Sat 11:00:05 PM 43.9914 -107.9947 319° Northwest 424 488 23,000 -2,244 Descending Salt Lake Center
Sat 11:01:07 PM 44.0653 -108.1014 314° West 389 448 20,700 -2,439 Descending Salt Lake Center
Sat 11:02:08 PM 44.1531 -108.2367 312° West 389 448 18,000 -2,164 Descending Salt Lake Center
Sat 11:03:09 PM 44.2233 -108.3450 312° West 388 447 16,300 -1,918 Descending Salt Lake Center
Sat 11:04:10 PM 44.2900 -108.4486 312° West 376 433 14,100 -2,115 Descending Salt Lake Center
Sat 11:05:11 PM 44.3550 -108.5503 312° West 364 419 12,000 -1,512 Descending Salt Lake Center
Sat 11:06:13 PM 44.4186 -108.6472 313° West 353 406 11,000 -537 Descending Salt Lake Center
Sat 11:07:14 PM 44.4722 -108.7292 313° West 320 368 10,900 -689 Descending Salt Lake Center
Sat 11:08:15 PM 44.5258 -108.7906 321° Northwest 277 319 9,600 -1,180 Descending Salt Lake Center
Sat 11:09:16 PM 44.5747 -108.8483 320° Northwest 254 292 8,500 -934 Descending Salt Lake Center
Sat 11:10:17 PM 44.5864 -108.9117 285° West 232 267 7,700 -1,131 Descending Salt Lake Center
Sat 11:11:18 PM 44.5531 -108.9675 230° Southwest 205 236 6,200 -927 Descending Salt Lake Center
Sat 11:12:20 PM 44.5197 -109.0214 229° Southwest 191 220 5,800 -387 Descending Salt Lake Center

Login

Don't have an account? Register now (free) for customized features, flight alerts, and more!